Terminal Aerodrome Forecast
Issued by NWS Omaha/Valley, NE

Home | Current Version | Previous Version | Text Only | Print | Product List | Glossary On
Versions: 1 2 3 4 5 6 7 8 9 10 11 12 13 14 15 16 17 18 19 20 21 22 23 24 25 26
000
FTUS43 KOAX 141156 AAA
TAFOFK
TAF AMD
KOFK 141156Z 1412/1512 VRB03KT P6SM SCT030
      TEMPO 1412/1415 2SM BR SCT030
     FM141600 04005KT P6SM SCT130
     FM150000 07006KT P6SM VCTS BKN250CB
     FM150600 10006KT P6SM OVC150
     FM151000 10006KT P6SM BKN015=

USA.gov is the U.S. government's official web portal to all federal, state and local government web resources and services.